Terminal Aerodrome Forecast
Issued by NWS Portland, ME

Current Version | Previous Version | Text Only | Print | Product List | Glossary On
Versions: 1 2 3 4 5 6 7 8 9 10 11 12 13 14 15 16 17 18
000
FTUS41 KGYX 181722
TAFCON
TAF
KCON 181722Z 1818/1918 14009KT P6SM BKN050 OVC080
      TEMPO 1820/1823 3SM -SHRA BKN025
     FM182300 31009KT P6SM SCT100=

USA.gov is the U.S. government's official web portal to all federal, state and local government web resources and services.